sensor_id;sensor_type;location;lat;lon;timestamp;P1;durP1;ratioP1;P2;durP2;ratioP2
72286;SDS011;60221;45.696;16.076;2023-02-25T00:02:01;8.60;;;3.30;;
72286;SDS011;60221;45.696;16.076;2023-02-25T00:04:30;11.10;;;3.30;;
72286;SDS011;60221;45.696;16.076;2023-02-25T00:06:58;12.80;;;4.10;;
72286;SDS011;60221;45.696;16.076;2023-02-25T00:09:24;10.40;;;2.90;;
72286;SDS011;60221;45.696;16.076;2023-02-25T00:11:52;9.20;;;3.40;;
72286;SDS011;60221;45.696;16.076;2023-02-25T00:14:19;11.10;;;3.30;;
72286;SDS011;60221;45.696;16.076;2023-02-25T00:16:47;8.90;;;2.50;;
72286;SDS011;60221;45.696;16.076;2023-02-25T00:19:15;7.90;;;2.40;;
72286;SDS011;60221;45.696;16.076;2023-02-25T00:21:41;9.20;;;2.70;;
72286;SDS011;60221;45.696;16.076;2023-02-25T00:24:08;9.50;;;2.30;;
72286;SDS011;60221;45.696;16.076;2023-02-25T00:26:42;9.30;;;2.70;;
72286;SDS011;60221;45.696;16.076;2023-02-25T00:29:12;10.20;;;3.00;;
72286;SDS011;60221;45.696;16.076;2023-02-25T00:31:39;12.10;;;3.20;;
72286;SDS011;60221;45.696;16.076;2023-02-25T00:34:07;9.90;;;2.40;;
72286;SDS011;60221;45.696;16.076;2023-02-25T00:36:34;7.50;;;2.30;;
72286;SDS011;60221;45.696;16.076;2023-02-25T00:39:04;8.20;;;2.90;;
72286;SDS011;60221;45.696;16.076;2023-02-25T00:41:33;9.30;;;2.00;;
72286;SDS011;60221;45.696;16.076;2023-02-25T00:44:00;9.30;;;2.30;;
72286;SDS011;60221;45.696;16.076;2023-02-25T00:46:28;7.20;;;1.50;;
72286;SDS011;60221;45.696;16.076;2023-02-25T00:48:55;7.70;;;2.90;;
72286;SDS011;60221;45.696;16.076;2023-02-25T00:51:27;9.70;;;3.00;;
72286;SDS011;60221;45.696;16.076;2023-02-25T00:53:55;12.70;;;3.20;;
72286;SDS011;60221;45.696;16.076;2023-02-25T00:56:23;8.90;;;2.10;;
72286;SDS011;60221;45.696;16.076;2023-02-25T00:58:51;13.50;;;4.40;;
72286;SDS011;60221;45.696;16.076;2023-02-25T01:01:19;11.00;;;2.40;;
72286;SDS011;60221;45.696;16.076;2023-02-25T01:03:47;14.70;;;2.40;;
72286;SDS011;60221;45.696;16.076;2023-02-25T01:06:15;10.20;;;3.00;;
72286;SDS011;60221;45.696;16.076;2023-02-25T01:08:42;8.50;;;2.20;;
72286;SDS011;60221;45.696;16.076;2023-02-25T01:11:11;8.00;;;1.90;;
72286;SDS011;60221;45.696;16.076;2023-02-25T01:13:39;8.10;;;1.90;;
72286;SDS011;60221;45.696;16.076;2023-02-25T01:16:10;7.30;;;1.80;;
72286;SDS011;60221;45.696;16.076;2023-02-25T01:18:39;7.60;;;1.80;;
72286;SDS011;60221;45.696;16.076;2023-02-25T01:21:06;12.20;;;2.30;;
72286;SDS011;60221;45.696;16.076;2023-02-25T01:23:33;9.50;;;2.20;;
72286;SDS011;60221;45.696;16.076;2023-02-25T01:26:02;8.00;;;2.60;;
72286;SDS011;60221;45.696;16.076;2023-02-25T01:28:29;10.80;;;2.20;;
72286;SDS011;60221;45.696;16.076;2023-02-25T01:30:57;12.10;;;2.60;;
72286;SDS011;60221;45.696;16.076;2023-02-25T01:33:24;14.30;;;2.30;;
72286;SDS011;60221;45.696;16.076;2023-02-25T01:35:50;8.00;;;1.90;;
72286;SDS011;60221;45.696;16.076;2023-02-25T01:38:17;7.70;;;1.90;;
72286;SDS011;60221;45.696;16.076;2023-02-25T01:40:44;10.40;;;1.70;;
72286;SDS011;60221;45.696;16.076;2023-02-25T01:43:12;9.50;;;2.00;;
72286;SDS011;60221;45.696;16.076;2023-02-25T01:45:41;8.10;;;1.50;;
72286;SDS011;60221;45.696;16.076;2023-02-25T01:48:14;9.50;;;2.70;;
72286;SDS011;60221;45.696;16.076;2023-02-25T01:50:46;6.90;;;1.80;;
72286;SDS011;60221;45.696;16.076;2023-02-25T01:53:14;7.10;;;1.30;;
72286;SDS011;60221;45.696;16.076;2023-02-25T01:55:43;13.30;;;2.60;;
72286;SDS011;60221;45.696;16.076;2023-02-25T01:58:10;7.50;;;1.90;;
72286;SDS011;60221;45.696;16.076;2023-02-25T02:00:37;12.00;;;2.60;;
72286;SDS011;60221;45.696;16.076;2023-02-25T02:03:05;11.90;;;2.10;;
72286;SDS011;60221;45.696;16.076;2023-02-25T02:05:44;12.40;;;2.00;;
72286;SDS011;60221;45.696;16.076;2023-02-25T02:08:13;8.90;;;1.90;;
72286;SDS011;60221;45.696;16.076;2023-02-25T02:10:40;10.80;;;2.20;;
72286;SDS011;60221;45.696;16.076;2023-02-25T02:13:07;8.50;;;2.40;;
72286;SDS011;60221;45.696;16.076;2023-02-25T02:15:34;10.30;;;2.90;;
72286;SDS011;60221;45.696;16.076;2023-02-25T02:18:03;8.40;;;1.60;;
72286;SDS011;60221;45.696;16.076;2023-02-25T02:36:07;9.80;;;2.20;;
72286;SDS011;60221;45.696;16.076;2023-02-25T02:38:38;7.10;;;1.80;;
72286;SDS011;60221;45.696;16.076;2023-02-25T02:43:41;8.00;;;1.40;;
72286;SDS011;60221;45.696;16.076;2023-02-25T02:46:23;7.60;;;1.60;;
72286;SDS011;60221;45.696;16.076;2023-02-25T02:54:12;5.60;;;1.40;;
72286;SDS011;60221;45.696;16.076;2023-02-25T02:56:41;6.10;;;1.30;;
72286;SDS011;60221;45.696;16.076;2023-02-25T02:59:10;6.90;;;1.50;;
72286;SDS011;60221;45.696;16.076;2023-02-25T03:01:43;9.30;;;1.40;;
72286;SDS011;60221;45.696;16.076;2023-02-25T03:04:16;7.10;;;1.80;;
72286;SDS011;60221;45.696;16.076;2023-02-25T03:06:46;8.70;;;2.10;;
72286;SDS011;60221;45.696;16.076;2023-02-25T03:09:18;7.30;;;1.30;;
72286;SDS011;60221;45.696;16.076;2023-02-25T03:11:47;12.30;;;1.90;;
72286;SDS011;60221;45.696;16.076;2023-02-25T03:14:16;7.60;;;1.40;;
72286;SDS011;60221;45.696;16.076;2023-02-25T03:16:44;8.90;;;1.60;;
72286;SDS011;60221;45.696;16.076;2023-02-25T03:19:14;6.50;;;1.20;;
72286;SDS011;60221;45.696;16.076;2023-02-25T03:21:42;7.80;;;1.70;;
72286;SDS011;60221;45.696;16.076;2023-02-25T03:24:31;8.90;;;1.50;;
72286;SDS011;60221;45.696;16.076;2023-02-25T03:27:14;8.80;;;1.30;;
72286;SDS011;60221;45.696;16.076;2023-02-25T03:29:48;6.90;;;1.50;;
72286;SDS011;60221;45.696;16.076;2023-02-25T03:32:15;8.20;;;1.10;;
72286;SDS011;60221;45.696;16.076;2023-02-25T03:34:46;9.20;;;1.70;;
72286;SDS011;60221;45.696;16.076;2023-02-25T03:37:20;8.00;;;1.50;;
72286;SDS011;60221;45.696;16.076;2023-02-25T03:39:50;7.70;;;2.10;;
72286;SDS011;60221;45.696;16.076;2023-02-25T03:42:25;11.30;;;1.90;;
72286;SDS011;60221;45.696;16.076;2023-02-25T03:44:54;9.90;;;2.70;;
72286;SDS011;60221;45.696;16.076;2023-02-25T03:47:22;7.50;;;1.90;;
72286;SDS011;60221;45.696;16.076;2023-02-25T03:49:55;12.30;;;2.60;;
72286;SDS011;60221;45.696;16.076;2023-02-25T03:52:25;7.80;;;2.00;;
72286;SDS011;60221;45.696;16.076;2023-02-25T03:54:56;12.20;;;2.60;;
72286;SDS011;60221;45.696;16.076;2023-02-25T03:57:25;8.70;;;1.80;;
72286;SDS011;60221;45.696;16.076;2023-02-25T03:59:54;11.30;;;2.20;;
72286;SDS011;60221;45.696;16.076;2023-02-25T04:02:23;10.60;;;2.00;;
72286;SDS011;60221;45.696;16.076;2023-02-25T04:04:50;9.60;;;2.30;;
72286;SDS011;60221;45.696;16.076;2023-02-25T04:07:18;7.20;;;1.60;;
72286;SDS011;60221;45.696;16.076;2023-02-25T04:09:45;9.60;;;1.90;;
72286;SDS011;60221;45.696;16.076;2023-02-25T04:12:12;9.10;;;1.90;;
72286;SDS011;60221;45.696;16.076;2023-02-25T04:14:39;11.40;;;2.60;;
72286;SDS011;60221;45.696;16.076;2023-02-25T04:17:07;7.40;;;1.50;;
72286;SDS011;60221;45.696;16.076;2023-02-25T04:19:34;8.30;;;1.20;;
72286;SDS011;60221;45.696;16.076;2023-02-25T04:22:01;10.90;;;2.00;;
72286;SDS011;60221;45.696;16.076;2023-02-25T04:24:27;10.10;;;1.60;;
72286;SDS011;60221;45.696;16.076;2023-02-25T04:26:54;9.30;;;2.10;;
72286;SDS011;60221;45.696;16.076;2023-02-25T04:29:24;9.50;;;1.20;;
72286;SDS011;60221;45.696;16.076;2023-02-25T04:31:51;8.30;;;1.10;;
72286;SDS011;60221;45.696;16.076;2023-02-25T04:34:18;10.10;;;1.40;;
72286;SDS011;60221;45.696;16.076;2023-02-25T04:36:45;14.30;;;2.20;;
72286;SDS011;60221;45.696;16.076;2023-02-25T04:39:13;9.20;;;2.10;;
72286;SDS011;60221;45.696;16.076;2023-02-25T04:41:40;7.60;;;1.60;;
72286;SDS011;60221;45.696;16.076;2023-02-25T04:44:07;10.20;;;2.10;;
72286;SDS011;60221;45.696;16.076;2023-02-25T04:46:35;9.30;;;2.40;;
72286;SDS011;60221;45.696;16.076;2023-02-25T04:49:03;9.40;;;3.10;;
72286;SDS011;60221;45.696;16.076;2023-02-25T04:51:30;10.10;;;2.10;;
72286;SDS011;60221;45.696;16.076;2023-02-25T04:53:57;7.70;;;1.70;;
72286;SDS011;60221;45.696;16.076;2023-02-25T04:56:24;8.10;;;2.10;;
72286;SDS011;60221;45.696;16.076;2023-02-25T04:58:51;8.50;;;2.10;;
72286;SDS011;60221;45.696;16.076;2023-02-25T05:01:19;9.60;;;1.70;;
72286;SDS011;60221;45.696;16.076;2023-02-25T05:03:46;10.50;;;1.80;;
72286;SDS011;60221;45.696;16.076;2023-02-25T05:06:13;10.40;;;1.80;;
72286;SDS011;60221;45.696;16.076;2023-02-25T05:08:40;9.60;;;1.70;;
72286;SDS011;60221;45.696;16.076;2023-02-25T05:11:07;8.30;;;1.90;;
72286;SDS011;60221;45.696;16.076;2023-02-25T05:13:33;9.60;;;2.10;;
72286;SDS011;60221;45.696;16.076;2023-02-25T05:16:04;9.70;;;2.30;;
72286;SDS011;60221;45.696;16.076;2023-02-25T05:18:34;10.30;;;2.50;;
72286;SDS011;60221;45.696;16.076;2023-02-25T05:21:01;11.60;;;2.20;;
72286;SDS011;60221;45.696;16.076;2023-02-25T05:23:28;14.10;;;2.40;;
72286;SDS011;60221;45.696;16.076;2023-02-25T05:25:55;8.10;;;1.70;;
72286;SDS011;60221;45.696;16.076;2023-02-25T05:28:24;9.00;;;1.80;;
72286;SDS011;60221;45.696;16.076;2023-02-25T05:30:51;11.30;;;2.40;;
72286;SDS011;60221;45.696;16.076;2023-02-25T05:33:19;10.40;;;2.50;;
72286;SDS011;60221;45.696;16.076;2023-02-25T05:35:46;14.30;;;1.90;;
72286;SDS011;60221;45.696;16.076;2023-02-25T05:38:13;11.10;;;2.80;;
72286;SDS011;60221;45.696;16.076;2023-02-25T05:40:40;9.70;;;1.90;;
72286;SDS011;60221;45.696;16.076;2023-02-25T05:43:07;12.30;;;3.90;;
72286;SDS011;60221;45.696;16.076;2023-02-25T05:45:34;11.00;;;2.80;;
72286;SDS011;60221;45.696;16.076;2023-02-25T05:48:01;11.30;;;4.10;;
72286;SDS011;60221;45.696;16.076;2023-02-25T05:50:28;8.70;;;3.30;;
72286;SDS011;60221;45.696;16.076;2023-02-25T05:52:57;12.80;;;4.00;;
72286;SDS011;60221;45.696;16.076;2023-02-25T05:55:24;12.00;;;3.50;;
72286;SDS011;60221;45.696;16.076;2023-02-25T05:57:52;14.10;;;4.50;;
72286;SDS011;60221;45.696;16.076;2023-02-25T06:00:19;11.80;;;2.70;;
72286;SDS011;60221;45.696;16.076;2023-02-25T06:02:47;8.40;;;2.50;;
72286;SDS011;60221;45.696;16.076;2023-02-25T06:05:14;15.50;;;2.30;;
72286;SDS011;60221;45.696;16.076;2023-02-25T06:07:40;10.10;;;1.80;;
72286;SDS011;60221;45.696;16.076;2023-02-25T06:10:08;8.80;;;2.00;;
72286;SDS011;60221;45.696;16.076;2023-02-25T06:12:35;12.20;;;2.00;;
72286;SDS011;60221;45.696;16.076;2023-02-25T06:15:03;10.80;;;1.50;;
72286;SDS011;60221;45.696;16.076;2023-02-25T06:17:30;7.50;;;1.20;;
72286;SDS011;60221;45.696;16.076;2023-02-25T06:19:57;8.10;;;1.30;;
72286;SDS011;60221;45.696;16.076;2023-02-25T06:22:24;6.40;;;1.50;;
72286;SDS011;60221;45.696;16.076;2023-02-25T06:24:51;8.90;;;1.60;;
72286;SDS011;60221;45.696;16.076;2023-02-25T06:27:17;10.00;;;1.80;;
72286;SDS011;60221;45.696;16.076;2023-02-25T06:29:46;9.40;;;1.70;;
72286;SDS011;60221;45.696;16.076;2023-02-25T06:32:14;9.50;;;1.70;;
72286;SDS011;60221;45.696;16.076;2023-02-25T06:34:41;9.70;;;1.40;;
72286;SDS011;60221;45.696;16.076;2023-02-25T06:37:08;9.30;;;1.50;;
72286;SDS011;60221;45.696;16.076;2023-02-25T06:39:35;10.90;;;1.70;;
72286;SDS011;60221;45.696;16.076;2023-02-25T06:42:02;7.30;;;1.30;;
72286;SDS011;60221;45.696;16.076;2023-02-25T06:44:29;11.20;;;1.70;;
72286;SDS011;60221;45.696;16.076;2023-02-25T06:46:56;8.70;;;1.60;;
72286;SDS011;60221;45.696;16.076;2023-02-25T06:49:23;6.90;;;1.30;;
72286;SDS011;60221;45.696;16.076;2023-02-25T06:51:50;8.80;;;1.10;;
72286;SDS011;60221;45.696;16.076;2023-02-25T06:54:17;5.70;;;1.00;;
72286;SDS011;60221;45.696;16.076;2023-02-25T06:56:44;10.00;;;1.60;;
72286;SDS011;60221;45.696;16.076;2023-02-25T06:59:11;8.10;;;1.80;;
72286;SDS011;60221;45.696;16.076;2023-02-25T07:01:38;6.50;;;1.30;;
72286;SDS011;60221;45.696;16.076;2023-02-25T07:04:06;9.80;;;1.30;;
72286;SDS011;60221;45.696;16.076;2023-02-25T07:06:33;8.40;;;1.30;;
72286;SDS011;60221;45.696;16.076;2023-02-25T07:08:59;10.40;;;1.70;;
72286;SDS011;60221;45.696;16.076;2023-02-25T07:11:28;8.90;;;1.90;;
72286;SDS011;60221;45.696;16.076;2023-02-25T07:13:55;9.40;;;1.90;;
72286;SDS011;60221;45.696;16.076;2023-02-25T07:16:22;10.10;;;2.30;;
72286;SDS011;60221;45.696;16.076;2023-02-25T07:18:49;21.50;;;10.20;;
72286;SDS011;60221;45.696;16.076;2023-02-25T07:21:16;29.80;;;9.90;;
72286;SDS011;60221;45.696;16.076;2023-02-25T07:23:43;17.30;;;7.20;;
72286;SDS011;60221;45.696;16.076;2023-02-25T07:26:12;40.60;;;17.20;;
72286;SDS011;60221;45.696;16.076;2023-02-25T07:28:39;18.90;;;7.50;;
72286;SDS011;60221;45.696;16.076;2023-02-25T07:31:10;86.90;;;42.00;;
72286;SDS011;60221;45.696;16.076;2023-02-25T07:33:38;46.70;;;23.90;;
72286;SDS011;60221;45.696;16.076;2023-02-25T07:36:05;23.90;;;10.90;;
72286;SDS011;60221;45.696;16.076;2023-02-25T07:38:32;26.60;;;12.70;;
72286;SDS011;60221;45.696;16.076;2023-02-25T07:41:02;15.40;;;4.70;;
72286;SDS011;60221;45.696;16.076;2023-02-25T07:43:29;12.70;;;4.10;;
72286;SDS011;60221;45.696;16.076;2023-02-25T07:45:56;72.70;;;35.80;;
72286;SDS011;60221;45.696;16.076;2023-02-25T07:48:23;73.60;;;39.10;;
72286;SDS011;60221;45.696;16.076;2023-02-25T07:50:51;37.90;;;18.90;;
72286;SDS011;60221;45.696;16.076;2023-02-25T07:53:17;21.70;;;9.60;;
72286;SDS011;60221;45.696;16.076;2023-02-25T07:55:48;20.40;;;14.70;;
72286;SDS011;60221;45.696;16.076;2023-02-25T07:58:15;12.10;;;5.70;;
72286;SDS011;60221;45.696;16.076;2023-02-25T08:00:41;12.40;;;4.10;;
72286;SDS011;60221;45.696;16.076;2023-02-25T08:03:11;15.40;;;6.00;;
72286;SDS011;60221;45.696;16.076;2023-02-25T08:05:38;12.40;;;5.30;;
72286;SDS011;60221;45.696;16.076;2023-02-25T08:08:04;15.10;;;6.90;;
72286;SDS011;60221;45.696;16.076;2023-02-25T08:10:32;9.00;;;2.80;;
72286;SDS011;60221;45.696;16.076;2023-02-25T08:12:59;7.50;;;1.60;;
72286;SDS011;60221;45.696;16.076;2023-02-25T08:15:26;8.00;;;2.90;;
72286;SDS011;60221;45.696;16.076;2023-02-25T08:17:52;16.10;;;4.90;;
72286;SDS011;60221;45.696;16.076;2023-02-25T08:20:21;28.60;;;8.70;;
72286;SDS011;60221;45.696;16.076;2023-02-25T08:22:47;38.40;;;14.40;;
72286;SDS011;60221;45.696;16.076;2023-02-25T08:25:14;56.90;;;27.10;;
72286;SDS011;60221;45.696;16.076;2023-02-25T08:27:41;39.70;;;19.30;;
72286;SDS011;60221;45.696;16.076;2023-02-25T08:30:10;19.10;;;7.50;;
72286;SDS011;60221;45.696;16.076;2023-02-25T08:32:37;17.30;;;6.80;;
72286;SDS011;60221;45.696;16.076;2023-02-25T08:35:04;13.80;;;6.90;;
72286;SDS011;60221;45.696;16.076;2023-02-25T08:37:31;9.00;;;4.90;;
72286;SDS011;60221;45.696;16.076;2023-02-25T08:39:59;12.70;;;4.80;;
72286;SDS011;60221;45.696;16.076;2023-02-25T08:42:25;9.70;;;3.60;;
72286;SDS011;60221;45.696;16.076;2023-02-25T08:44:52;10.20;;;2.50;;
72286;SDS011;60221;45.696;16.076;2023-02-25T08:47:19;11.50;;;2.80;;
72286;SDS011;60221;45.696;16.076;2023-02-25T08:49:46;13.10;;;4.70;;
72286;SDS011;60221;45.696;16.076;2023-02-25T08:52:13;9.90;;;3.90;;
72286;SDS011;60221;45.696;16.076;2023-02-25T08:54:40;12.20;;;4.20;;
72286;SDS011;60221;45.696;16.076;2023-02-25T08:57:07;25.20;;;13.00;;
72286;SDS011;60221;45.696;16.076;2023-02-25T08:59:34;22.10;;;10.90;;
72286;SDS011;60221;45.696;16.076;2023-02-25T09:02:04;12.90;;;5.80;;
72286;SDS011;60221;45.696;16.076;2023-02-25T09:04:32;8.10;;;3.00;;
72286;SDS011;60221;45.696;16.076;2023-02-25T09:07:00;11.10;;;3.10;;
72286;SDS011;60221;45.696;16.076;2023-02-25T09:09:28;12.10;;;2.90;;
72286;SDS011;60221;45.696;16.076;2023-02-25T09:11:55;13.30;;;5.50;;
72286;SDS011;60221;45.696;16.076;2023-02-25T09:14:22;16.40;;;8.90;;
72286;SDS011;60221;45.696;16.076;2023-02-25T09:16:49;9.50;;;2.50;;
72286;SDS011;60221;45.696;16.076;2023-02-25T09:19:16;10.00;;;3.20;;
72286;SDS011;60221;45.696;16.076;2023-02-25T09:21:44;11.10;;;2.30;;
72286;SDS011;60221;45.696;16.076;2023-02-25T09:24:14;10.00;;;2.10;;
72286;SDS011;60221;45.696;16.076;2023-02-25T09:26:40;9.90;;;2.20;;
72286;SDS011;60221;45.696;16.076;2023-02-25T09:29:07;10.90;;;4.80;;
72286;SDS011;60221;45.696;16.076;2023-02-25T09:31:35;12.00;;;3.30;;
72286;SDS011;60221;45.696;16.076;2023-02-25T09:34:04;5.70;;;1.60;;
72286;SDS011;60221;45.696;16.076;2023-02-25T09:36:32;9.90;;;3.80;;
72286;SDS011;60221;45.696;16.076;2023-02-25T09:38:59;7.30;;;2.30;;
72286;SDS011;60221;45.696;16.076;2023-02-25T09:41:31;9.40;;;3.30;;
72286;SDS011;60221;45.696;16.076;2023-02-25T09:46:26;7.10;;;2.30;;
72286;SDS011;60221;45.696;16.076;2023-02-25T09:49:03;8.70;;;2.70;;
72286;SDS011;60221;45.696;16.076;2023-02-25T09:51:39;6.80;;;1.80;;
72286;SDS011;60221;45.696;16.076;2023-02-25T09:54:12;7.90;;;2.60;;
72286;SDS011;60221;45.696;16.076;2023-02-25T09:56:41;9.80;;;3.00;;
72286;SDS011;60221;45.696;16.076;2023-02-25T09:59:15;6.70;;;2.00;;
72286;SDS011;60221;45.696;16.076;2023-02-25T10:02:12;10.70;;;2.60;;
72286;SDS011;60221;45.696;16.076;2023-02-25T10:06:57;10.60;;;3.90;;
72286;SDS011;60221;45.696;16.076;2023-02-25T10:09:39;9.60;;;3.50;;
72286;SDS011;60221;45.696;16.076;2023-02-25T10:24:57;8.80;;;4.20;;
72286;SDS011;60221;45.696;16.076;2023-02-25T10:27:33;9.50;;;3.10;;
72286;SDS011;60221;45.696;16.076;2023-02-25T10:30:04;14.90;;;7.60;;
72286;SDS011;60221;45.696;16.076;2023-02-25T10:32:35;8.70;;;4.00;;
72286;SDS011;60221;45.696;16.076;2023-02-25T10:37:43;9.50;;;3.20;;
72286;SDS011;60221;45.696;16.076;2023-02-25T10:40:12;9.00;;;2.30;;
72286;SDS011;60221;45.696;16.076;2023-02-25T10:42:42;6.60;;;1.60;;
72286;SDS011;60221;45.696;16.076;2023-02-25T10:45:10;8.30;;;2.00;;
72286;SDS011;60221;45.696;16.076;2023-02-25T10:47:41;6.90;;;2.50;;
72286;SDS011;60221;45.696;16.076;2023-02-25T10:50:19;7.20;;;1.90;;
72286;SDS011;60221;45.696;16.076;2023-02-25T10:52:54;6.90;;;1.60;;
72286;SDS011;60221;45.696;16.076;2023-02-25T10:55:54;8.40;;;1.80;;
72286;SDS011;60221;45.696;16.076;2023-02-25T10:58:29;7.10;;;2.10;;
72286;SDS011;60221;45.696;16.076;2023-02-25T11:01:00;10.60;;;4.90;;
72286;SDS011;60221;45.696;16.076;2023-02-25T11:03:30;6.60;;;2.20;;
72286;SDS011;60221;45.696;16.076;2023-02-25T11:08:57;5.60;;;1.10;;
72286;SDS011;60221;45.696;16.076;2023-02-25T11:11:26;5.20;;;1.40;;
72286;SDS011;60221;45.696;16.076;2023-02-25T11:14:02;6.90;;;1.60;;
72286;SDS011;60221;45.696;16.076;2023-02-25T11:16:32;6.20;;;1.30;;
72286;SDS011;60221;45.696;16.076;2023-02-25T11:19:12;6.10;;;1.70;;
72286;SDS011;60221;45.696;16.076;2023-02-25T11:21:40;5.60;;;1.30;;
72286;SDS011;60221;45.696;16.076;2023-02-25T11:24:18;6.00;;;1.20;;
72286;SDS011;60221;45.696;16.076;2023-02-25T11:26:50;5.40;;;1.20;;
72286;SDS011;60221;45.696;16.076;2023-02-25T11:29:21;8.30;;;3.50;;
72286;SDS011;60221;45.696;16.076;2023-02-25T11:31:55;5.20;;;1.50;;
72286;SDS011;60221;45.696;16.076;2023-02-25T11:34:25;6.50;;;1.90;;
72286;SDS011;60221;45.696;16.076;2023-02-25T11:36:53;7.20;;;1.90;;
72286;SDS011;60221;45.696;16.076;2023-02-25T11:39:27;7.50;;;1.60;;
72286;SDS011;60221;45.696;16.076;2023-02-25T11:41:57;5.70;;;1.30;;
72286;SDS011;60221;45.696;16.076;2023-02-25T11:44:29;6.50;;;1.40;;
72286;SDS011;60221;45.696;16.076;2023-02-25T11:46:59;6.40;;;1.90;;
72286;SDS011;60221;45.696;16.076;2023-02-25T11:57:32;6.30;;;1.80;;
72286;SDS011;60221;45.696;16.076;2023-02-25T12:00:10;4.90;;;0.90;;
72286;SDS011;60221;45.696;16.076;2023-02-25T12:18:25;7.40;;;1.60;;
72286;SDS011;60221;45.696;16.076;2023-02-25T12:24:02;5.00;;;1.20;;
72286;SDS011;60221;45.696;16.076;2023-02-25T12:34:49;5.10;;;0.90;;
72286;SDS011;60221;45.696;16.076;2023-02-25T12:45:20;5.00;;;1.00;;
72286;SDS011;60221;45.696;16.076;2023-02-25T12:50:37;3.80;;;0.70;;
72286;SDS011;60221;45.696;16.076;2023-02-25T12:55:41;3.70;;;0.60;;
72286;SDS011;60221;45.696;16.076;2023-02-25T13:06:03;3.90;;;1.10;;
72286;SDS011;60221;45.696;16.076;2023-02-25T13:14:28;3.50;;;0.70;;
72286;SDS011;60221;45.696;16.076;2023-02-25T13:25:09;11.20;;;3.90;;
72286;SDS011;60221;45.696;16.076;2023-02-25T13:27:48;5.00;;;1.40;;
72286;SDS011;60221;45.696;16.076;2023-02-25T13:30:28;4.30;;;0.80;;
72286;SDS011;60221;45.696;16.076;2023-02-25T13:33:06;5.40;;;1.10;;
72286;SDS011;60221;45.696;16.076;2023-02-25T13:35:53;5.10;;;0.70;;
72286;SDS011;60221;45.696;16.076;2023-02-25T13:40:54;5.00;;;0.90;;
72286;SDS011;60221;45.696;16.076;2023-02-25T13:51:10;2.80;;;0.30;;
72286;SDS011;60221;45.696;16.076;2023-02-25T13:54:48;2.60;;;0.30;;
72286;SDS011;60221;45.696;16.076;2023-02-25T13:56:54;3.30;;;0.30;;
72286;SDS011;60221;45.696;16.076;2023-02-25T14:09:24;3.50;;;0.40;;
72286;SDS011;60221;45.696;16.076;2023-02-25T14:12:05;4.20;;;0.30;;
72286;SDS011;60221;45.696;16.076;2023-02-25T14:22:21;4.40;;;0.20;;
72286;SDS011;60221;45.696;16.076;2023-02-25T14:30:12;3.20;;;0.30;;
72286;SDS011;60221;45.696;16.076;2023-02-25T14:33:28;3.40;;;0.40;;
72286;SDS011;60221;45.696;16.076;2023-02-25T14:38:21;4.00;;;0.20;;
72286;SDS011;60221;45.696;16.076;2023-02-25T14:41:01;2.60;;;0.30;;
72286;SDS011;60221;45.696;16.076;2023-02-25T14:43:36;3.30;;;0.40;;
72286;SDS011;60221;45.696;16.076;2023-02-25T14:51:48;3.20;;;0.20;;
72286;SDS011;60221;45.696;16.076;2023-02-25T15:10:13;2.20;;;0.10;;
72286;SDS011;60221;45.696;16.076;2023-02-25T15:20:46;1.90;;;0.00;;
72286;SDS011;60221;45.696;16.076;2023-02-25T15:23:15;3.70;;;0.20;;
72286;SDS011;60221;45.696;16.076;2023-02-25T15:25:48;2.10;;;0.20;;
72286;SDS011;60221;45.696;16.076;2023-02-25T15:33:38;2.10;;;0.40;;
72286;SDS011;60221;45.696;16.076;2023-02-25T15:38:51;3.10;;;0.20;;
72286;SDS011;60221;45.696;16.076;2023-02-25T15:46:40;3.60;;;0.50;;
72286;SDS011;60221;45.696;16.076;2023-02-25T15:51:43;4.50;;;0.40;;
72286;SDS011;60221;45.696;16.076;2023-02-25T15:57:03;3.40;;;0.30;;
72286;SDS011;60221;45.696;16.076;2023-02-25T15:59:56;2.80;;;0.50;;
72286;SDS011;60221;45.696;16.076;2023-02-25T16:05:19;3.90;;;0.50;;
72286;SDS011;60221;45.696;16.076;2023-02-25T16:07:46;4.30;;;0.50;;
72286;SDS011;60221;45.696;16.076;2023-02-25T16:10:17;3.50;;;0.30;;
72286;SDS011;60221;45.696;16.076;2023-02-25T16:12:47;3.90;;;0.20;;
72286;SDS011;60221;45.696;16.076;2023-02-25T16:15:37;3.10;;;0.30;;
72286;SDS011;60221;45.696;16.076;2023-02-25T16:18:11;3.80;;;0.50;;
72286;SDS011;60221;45.696;16.076;2023-02-25T16:20:43;5.00;;;0.40;;
72286;SDS011;60221;45.696;16.076;2023-02-25T16:23:14;4.50;;;0.40;;
72286;SDS011;60221;45.696;16.076;2023-02-25T16:25:46;4.00;;;0.30;;
72286;SDS011;60221;45.696;16.076;2023-02-25T16:30:53;3.20;;;0.20;;
72286;SDS011;60221;45.696;16.076;2023-02-25T16:41:03;1.40;;;0.10;;
72286;SDS011;60221;45.696;16.076;2023-02-25T16:43:35;4.10;;;0.20;;
72286;SDS011;60221;45.696;16.076;2023-02-25T16:46:04;2.70;;;0.20;;
72286;SDS011;60221;45.696;16.076;2023-02-25T16:48:37;2.70;;;0.10;;
72286;SDS011;60221;45.696;16.076;2023-02-25T16:51:13;2.50;;;0.20;;
72286;SDS011;60221;45.696;16.076;2023-02-25T16:53:44;3.30;;;0.20;;
72286;SDS011;60221;45.696;16.076;2023-02-25T16:56:13;4.20;;;0.30;;
72286;SDS011;60221;45.696;16.076;2023-02-25T16:59:03;2.40;;;0.20;;
72286;SDS011;60221;45.696;16.076;2023-02-25T17:01:33;3.30;;;0.50;;
72286;SDS011;60221;45.696;16.076;2023-02-25T17:04:15;3.20;;;0.10;;
72286;SDS011;60221;45.696;16.076;2023-02-25T17:06:43;4.10;;;0.20;;
72286;SDS011;60221;45.696;16.076;2023-02-25T17:09:21;1.60;;;0.10;;
72286;SDS011;60221;45.696;16.076;2023-02-25T17:11:52;2.90;;;0.30;;
72286;SDS011;60221;45.696;16.076;2023-02-25T17:14:22;2.80;;;0.30;;
72286;SDS011;60221;45.696;16.076;2023-02-25T17:16:51;4.60;;;0.50;;
72286;SDS011;60221;45.696;16.076;2023-02-25T17:19:19;4.70;;;0.70;;
72286;SDS011;60221;45.696;16.076;2023-02-25T17:21:55;4.30;;;0.40;;
72286;SDS011;60221;45.696;16.076;2023-02-25T17:24:26;3.60;;;0.20;;
72286;SDS011;60221;45.696;16.076;2023-02-25T17:26:57;2.50;;;0.10;;
72286;SDS011;60221;45.696;16.076;2023-02-25T17:29:31;2.70;;;0.20;;
72286;SDS011;60221;45.696;16.076;2023-02-25T17:32:10;1.60;;;0.10;;
72286;SDS011;60221;45.696;16.076;2023-02-25T17:34:39;1.80;;;0.10;;
72286;SDS011;60221;45.696;16.076;2023-02-25T17:37:09;2.40;;;0.20;;
72286;SDS011;60221;45.696;16.076;2023-02-25T17:39:38;2.50;;;0.10;;
72286;SDS011;60221;45.696;16.076;2023-02-25T17:42:48;3.80;;;0.10;;
72286;SDS011;60221;45.696;16.076;2023-02-25T17:44:57;2.40;;;0.10;;
72286;SDS011;60221;45.696;16.076;2023-02-25T17:47:28;2.30;;;0.10;;
72286;SDS011;60221;45.696;16.076;2023-02-25T17:49:57;3.60;;;0.10;;
72286;SDS011;60221;45.696;16.076;2023-02-25T17:52:28;2.00;;;0.10;;
72286;SDS011;60221;45.696;16.076;2023-02-25T17:55:01;1.80;;;0.00;;
72286;SDS011;60221;45.696;16.076;2023-02-25T17:57:31;1.30;;;0.00;;
72286;SDS011;60221;45.696;16.076;2023-02-25T18:00:18;2.30;;;0.10;;
72286;SDS011;60221;45.696;16.076;2023-02-25T18:03:05;2.00;;;0.10;;
72286;SDS011;60221;45.696;16.076;2023-02-25T18:05:39;7.30;;;;;
72286;SDS011;60221;45.696;16.076;2023-02-25T18:10:44;6.10;;;2.00;;
72286;SDS011;60221;45.696;16.076;2023-02-25T18:13:23;4.00;;;0.30;;
72286;SDS011;60221;45.696;16.076;2023-02-25T18:18:38;6.30;;;0.30;;
72286;SDS011;60221;45.696;16.076;2023-02-25T18:21:08;4.90;;;0.30;;
72286;SDS011;60221;45.696;16.076;2023-02-25T18:23:38;3.60;;;0.30;;
72286;SDS011;60221;45.696;16.076;2023-02-25T18:28:38;2.40;;;0.10;;
72286;SDS011;60221;45.696;16.076;2023-02-25T18:31:07;2.80;;;0.10;;